This is the latest recevied weather packets stored in our database for station/object PACCTY. If no packets are shown the sender has not sent any weather packets the latest 10 day(s).
| Time | Temp. | Humidity | Pressure | Rain* | Wind** | Luminosity | Snow |
|---|---|---|---|---|---|---|---|
| 1777753513 | 13.89° C | 81% | 1012.9 hPa | 0 mm | - | - | - |
| 1777751712 | 15° C | 77% | 1013.2 hPa | 0 mm | - | - | - |
| 1777750514 | 15.56° C | 75% | 1013.1 hPa | 0 mm | - | - | - |
| 1777749912 | 16.11° C | 75% | 1013.4 hPa | 0 mm | - | - | - |
| 1777749312 | 15.56° C | 76% | 1013.7 hPa | 0 mm | - | - | - |
| 1777748712 | 15.56° C | 78% | 1013.5 hPa | 0 mm | - | - | - |
| 1777748489 | 15.56° C | 79% | 1013.6 hPa | 0 mm | - | - | - |
| 1777748412 | 15.56° C | 79% | 1013.6 hPa | 0 mm | - | - | - |
| 1777748112 | 15° C | 80% | 1013.8 hPa | 0 mm | - | - | - |
| 1777747512 | 14.44° C | 81% | 1014 hPa | 0 mm | - | - | - |
| 1777746912 | 13.89° C | 82% | 1014.1 hPa | 0 mm | - | - | - |
| 1777746312 | 13.89° C | 82% | 1014.1 hPa | 0 mm | - | - | - |
| 1777746012 | 13.89° C | 82% | 1014 hPa | 0 mm | - | - | - |
| 1777745712 | 13.89° C | 83% | 1013.9 hPa | 0 mm | - | - | - |
| 1777745112 | 13.33° C | 82% | 1013.9 hPa | 0 mm | - | - | - |
| 1777744512 | 13.33° C | 82% | 1013.9 hPa | 0 mm | - | - | - |
| 1777744215 | 13.33° C | 83% | 1013.9 hPa | 0 mm | - | - | - |
| 1777743912 | 13.33° C | 82% | 1013.9 hPa | 0 mm | - | - | - |
| 1777743312 | 13.33° C | 82% | 1014.1 hPa | 0 mm | - | - | - |
| 1777743012 | 12.78° C | 82% | 1014.2 hPa | 0 mm | - | - | - |
| 1777742712 | 12.78° C | 82% | 1014.3 hPa | 0 mm | - | - | - |
| 1777742113 | 12.78° C | 83% | 1014.4 hPa | 0 mm | - | - | - |
| 1777741512 | 12.78° C | 83% | 1014.5 hPa | 0 mm | - | - | - |
| 1777741212 | 12.78° C | 84% | 1014.4 hPa | 0 mm | - | - | - |
| 1777740913 | 12.22° C | 84% | 1014.4 hPa | 0 mm | - | - | - |
* Rain latest hour (hover to see other rain measurements)
** Current wind speed in m/s (hover to see current wind gust speed)